createdAt,value
2016-12-20T00:00:17.058Z,963.71
2016-12-20T00:01:17.040Z,963.71
2016-12-20T00:02:17.020Z,963.73
2016-12-20T00:03:17.002Z,963.79
2016-12-20T00:04:16.984Z,963.79
2016-12-20T00:05:16.966Z,963.84
2016-12-20T00:06:16.948Z,963.84
2016-12-20T00:07:16.931Z,963.83
2016-12-20T00:08:16.910Z,963.88
2016-12-20T00:09:16.891Z,963.93
2016-12-20T00:10:16.872Z,963.93
2016-12-20T00:11:16.853Z,964
2016-12-20T00:12:16.835Z,963.95
2016-12-20T00:13:16.816Z,963.97
2016-12-20T00:14:16.797Z,964.04
2016-12-20T00:15:16.778Z,964.05
2016-12-20T00:16:16.760Z,964.05
2016-12-20T00:17:16.742Z,964.09
2016-12-20T00:18:16.723Z,964.04
2016-12-20T00:19:16.705Z,964.03
2016-12-20T00:20:16.685Z,964.02
2016-12-20T00:21:16.667Z,963.98
2016-12-20T00:22:16.649Z,963.97
2016-12-20T00:23:16.630Z,963.99
2016-12-20T00:24:16.611Z,964.04
2016-12-20T00:25:16.592Z,964.03
2016-12-20T00:26:16.574Z,964
2016-12-20T00:27:16.555Z,963.97
2016-12-20T00:28:16.537Z,963.92
2016-12-20T00:29:16.519Z,963.94
2016-12-20T00:30:16.500Z,963.97
2016-12-20T00:31:16.482Z,963.95
2016-12-20T00:32:16.461Z,963.98
2016-12-20T00:33:16.444Z,963.99
2016-12-20T00:34:16.425Z,963.99
2016-12-20T00:35:16.405Z,963.96
2016-12-20T00:36:16.388Z,963.92
2016-12-20T00:37:16.370Z,963.88
2016-12-20T00:38:16.351Z,963.87
2016-12-20T00:39:16.332Z,963.89
2016-12-20T00:40:16.314Z,963.89
2016-12-20T00:41:16.294Z,963.92
2016-12-20T00:42:16.275Z,963.9
2016-12-20T00:43:16.257Z,963.94
2016-12-20T00:44:16.239Z,963.93
2016-12-20T00:45:16.220Z,963.92
2016-12-20T00:46:16.200Z,963.93
2016-12-20T00:47:16.182Z,963.88
2016-12-20T00:48:16.170Z,963.9
2016-12-20T00:49:16.146Z,963.86
2016-12-20T00:50:16.127Z,963.87
2016-12-20T00:51:16.109Z,963.87
2016-12-20T00:52:16.088Z,963.9
2016-12-20T00:53:16.070Z,963.92
2016-12-20T00:54:16.053Z,963.92
2016-12-20T00:55:16.033Z,963.94
2016-12-20T00:56:16.015Z,963.94
2016-12-20T00:57:15.995Z,963.98
2016-12-20T00:58:15.977Z,964
2016-12-20T00:59:15.958Z,964.01
2016-12-20T01:00:15.940Z,964.03
2016-12-20T01:01:15.922Z,964.06
2016-12-20T01:02:15.902Z,964.02
2016-12-20T01:03:15.885Z,964.03
2016-12-20T01:04:15.864Z,963.99
2016-12-20T01:05:15.847Z,963.96
2016-12-20T01:06:15.828Z,963.99
2016-12-20T01:07:15.809Z,964.01
2016-12-20T01:08:15.789Z,964.01
2016-12-20T01:09:15.773Z,964.02
2016-12-20T01:10:15.753Z,964.01
2016-12-20T01:11:15.733Z,964.01
2016-12-20T01:12:15.715Z,964.02
2016-12-20T01:13:15.695Z,964.06
2016-12-20T01:14:15.677Z,964.06
2016-12-20T01:15:15.657Z,964.04
2016-12-20T01:16:15.638Z,964.02
2016-12-20T01:17:15.620Z,963.99
2016-12-20T01:18:15.602Z,963.94
2016-12-20T01:19:15.582Z,963.94
2016-12-20T01:20:15.563Z,963.95
2016-12-20T01:21:15.545Z,964.01
2016-12-20T01:22:15.525Z,963.95
2016-12-20T01:23:15.506Z,963.93
2016-12-20T01:24:15.488Z,963.96
2016-12-20T01:25:15.469Z,963.93
2016-12-20T01:26:15.451Z,963.92
2016-12-20T01:27:15.430Z,963.91
2016-12-20T01:28:15.411Z,963.96
2016-12-20T01:29:15.393Z,963.92
2016-12-20T01:30:15.373Z,963.89
2016-12-20T01:31:15.355Z,963.92
2016-12-20T01:32:15.336Z,963.9
2016-12-20T01:33:15.315Z,963.9
2016-12-20T01:34:15.295Z,963.91
2016-12-20T01:35:15.281Z,963.92
2016-12-20T01:36:15.257Z,963.99
2016-12-20T01:37:15.238Z,963.95
2016-12-20T01:38:15.219Z,963.97
2016-12-20T01:39:15.201Z,963.91
2016-12-20T01:40:15.181Z,963.94
2016-12-20T01:41:15.162Z,963.93
2016-12-20T01:42:15.142Z,963.98
2016-12-20T01:43:15.124Z,963.98
2016-12-20T01:44:15.104Z,964
2016-12-20T01:45:15.087Z,963.98
2016-12-20T01:46:15.066Z,963.98
2016-12-20T01:47:15.047Z,964.04
2016-12-20T01:48:15.026Z,963.95
2016-12-20T01:49:15.007Z,963.96
2016-12-20T01:50:14.989Z,963.94
2016-12-20T01:51:14.970Z,963.98
2016-12-20T01:52:14.950Z,963.96
2016-12-20T01:53:14.930Z,963.99
2016-12-20T01:54:14.910Z,963.94
2016-12-20T01:55:14.892Z,964.01
2016-12-20T01:56:14.875Z,964.01
2016-12-20T01:57:14.852Z,963.98
2016-12-20T01:58:14.834Z,963.95
2016-12-20T01:59:14.814Z,964
2016-12-20T02:00:14.795Z,963.97
2016-12-20T02:01:14.777Z,963.92
2016-12-20T02:02:14.756Z,963.93
2016-12-20T02:03:14.736Z,963.91
2016-12-20T02:04:14.718Z,963.89
2016-12-20T02:05:14.832Z,963.9
2016-12-20T02:06:14.678Z,963.89
2016-12-20T02:07:14.659Z,963.86
2016-12-20T02:08:14.640Z,963.87
2016-12-20T02:09:14.621Z,963.83
2016-12-20T02:10:14.600Z,963.83
2016-12-20T02:11:14.581Z,963.82
2016-12-20T02:12:14.562Z,963.77
2016-12-20T02:13:14.543Z,963.76
2016-12-20T02:14:14.523Z,963.73
2016-12-20T02:15:14.503Z,963.69
2016-12-20T02:16:14.484Z,963.65
2016-12-20T02:17:14.465Z,963.65
2016-12-20T02:18:14.445Z,963.61
2016-12-20T02:19:14.426Z,963.6
2016-12-20T02:20:14.407Z,963.56
2016-12-20T02:21:14.388Z,963.56
2016-12-20T02:22:14.367Z,963.62
2016-12-20T02:23:14.348Z,963.59
2016-12-20T02:24:14.330Z,963.6
2016-12-20T02:25:14.310Z,963.6
2016-12-20T02:26:14.290Z,963.56
2016-12-20T02:27:14.272Z,963.51
2016-12-20T02:28:14.251Z,963.57
2016-12-20T02:29:14.232Z,963.56
2016-12-20T02:30:14.211Z,963.6
2016-12-20T02:31:14.193Z,963.55
2016-12-20T02:32:14.173Z,963.55
2016-12-20T02:33:14.153Z,963.53
2016-12-20T02:34:14.133Z,963.54
2016-12-20T02:35:14.114Z,963.54
2016-12-20T02:36:14.097Z,963.52
2016-12-20T02:37:14.077Z,963.52
2016-12-20T02:38:14.058Z,963.54
2016-12-20T02:39:14.037Z,963.53
2016-12-20T02:40:14.017Z,963.49
2016-12-20T02:41:13.998Z,963.49
2016-12-20T02:42:13.979Z,963.51
2016-12-20T02:43:13.958Z,963.5
2016-12-20T02:44:13.940Z,963.43
2016-12-20T02:45:13.921Z,963.4
2016-12-20T02:46:13.899Z,963.41
2016-12-20T02:47:13.880Z,963.37
2016-12-20T02:48:13.862Z,963.37
2016-12-20T02:49:13.843Z,963.3
2016-12-20T02:50:13.821Z,963.31
2016-12-20T02:51:13.802Z,963.33
2016-12-20T02:52:13.784Z,963.36
2016-12-20T02:53:13.763Z,963.33
2016-12-20T02:54:13.744Z,963.32
2016-12-20T02:55:13.724Z,963.21
2016-12-20T02:56:13.705Z,963.25
2016-12-20T02:57:13.686Z,963.21
2016-12-20T02:58:13.666Z,963.23
2016-12-20T02:59:13.646Z,963.2
2016-12-20T03:00:13.627Z,963.19
2016-12-20T03:01:13.607Z,963.21
2016-12-20T03:02:13.588Z,963.17
2016-12-20T03:03:13.569Z,963.22
2016-12-20T03:04:13.550Z,963.17
2016-12-20T03:05:13.528Z,963.15
2016-12-20T03:06:13.509Z,963.19
2016-12-20T03:07:13.489Z,963.17
2016-12-20T03:08:13.469Z,963.19
2016-12-20T03:09:13.449Z,963.17
2016-12-20T03:10:13.430Z,963.17
2016-12-20T03:11:13.413Z,963.12
2016-12-20T03:12:13.390Z,963.16
2016-12-20T03:13:13.371Z,963.12
2016-12-20T03:14:13.352Z,963.11
2016-12-20T03:15:13.332Z,963.15
2016-12-20T03:16:13.312Z,963.15
2016-12-20T03:17:13.292Z,963.15
2016-12-20T03:18:13.274Z,963.16
2016-12-20T03:19:13.253Z,963.16
2016-12-20T03:20:13.234Z,963.19
2016-12-20T03:21:13.214Z,963.19
2016-12-20T03:22:13.196Z,963.16
2016-12-20T03:23:13.175Z,963.13
2016-12-20T03:24:13.155Z,963.1
2016-12-20T03:25:13.137Z,963.11
2016-12-20T03:26:13.118Z,963.11
2016-12-20T03:27:13.098Z,963.09
2016-12-20T03:28:13.076Z,963.1
2016-12-20T03:29:13.057Z,963.11
2016-12-20T03:30:13.037Z,963.09
2016-12-20T03:31:13.017Z,963.08
2016-12-20T03:32:12.998Z,963.06
2016-12-20T03:33:12.979Z,963.04
2016-12-20T03:34:12.959Z,963.04
2016-12-20T03:35:12.939Z,963.03
2016-12-20T03:36:12.919Z,963.06
2016-12-20T03:37:12.902Z,963.02
2016-12-20T03:38:12.880Z,963.05
2016-12-20T03:39:12.862Z,963.02
2016-12-20T03:40:12.841Z,962.99
2016-12-20T03:41:12.821Z,962.99
2016-12-20T03:42:12.801Z,962.96
2016-12-20T03:43:12.782Z,962.91
2016-12-20T03:44:12.762Z,962.92
2016-12-20T03:45:12.742Z,962.89
2016-12-20T03:46:12.723Z,962.93
2016-12-20T03:47:12.704Z,962.89
2016-12-20T03:48:12.683Z,962.89
2016-12-20T03:49:12.663Z,962.87
2016-12-20T03:50:12.645Z,962.88
2016-12-20T03:51:12.624Z,962.87
2016-12-20T03:52:12.604Z,962.84
2016-12-20T03:53:12.584Z,962.78
2016-12-20T03:54:12.566Z,962.76
2016-12-20T03:55:12.546Z,962.74
2016-12-20T03:56:12.525Z,962.77
2016-12-20T03:57:12.505Z,962.76
2016-12-20T03:58:12.487Z,962.77
2016-12-20T03:59:12.468Z,962.74
2016-12-20T04:00:12.447Z,962.7
2016-12-20T04:01:12.427Z,962.63
2016-12-20T04:02:12.407Z,962.67
2016-12-20T04:03:12.387Z,962.69
2016-12-20T04:04:12.368Z,962.7
2016-12-20T04:05:12.348Z,962.67
2016-12-20T04:06:12.328Z,962.66
2016-12-20T04:07:12.309Z,962.67
2016-12-20T04:08:12.289Z,962.71
2016-12-20T04:09:12.270Z,962.72
2016-12-20T04:10:12.249Z,962.72
2016-12-20T04:11:12.229Z,962.75
2016-12-20T04:12:12.211Z,962.73
2016-12-20T04:13:12.190Z,962.74
2016-12-20T04:14:12.171Z,962.74
2016-12-20T04:15:12.150Z,962.71
2016-12-20T04:16:12.131Z,962.67
2016-12-20T04:17:12.113Z,962.67
2016-12-20T04:18:12.091Z,962.69
2016-12-20T04:19:12.071Z,962.71
2016-12-20T04:20:12.051Z,962.65
2016-12-20T04:21:12.032Z,962.68
2016-12-20T04:22:12.011Z,962.64
2016-12-20T04:23:11.992Z,962.58
2016-12-20T04:24:11.972Z,962.56
2016-12-20T04:25:11.953Z,962.58
2016-12-20T04:26:11.932Z,962.61
2016-12-20T04:27:11.912Z,962.58
2016-12-20T04:28:11.893Z,962.55
2016-12-20T04:29:11.873Z,962.6
2016-12-20T04:30:11.853Z,962.59
2016-12-20T04:31:11.834Z,962.6
2016-12-20T04:32:11.814Z,962.61
2016-12-20T04:33:11.796Z,962.63
2016-12-20T04:34:11.776Z,962.63
2016-12-20T04:35:11.754Z,962.64
2016-12-20T04:36:11.734Z,962.69
2016-12-20T04:37:11.714Z,962.66
2016-12-20T04:38:11.694Z,962.66
2016-12-20T04:39:11.676Z,962.67
2016-12-20T04:40:11.654Z,962.65
2016-12-20T04:41:11.636Z,962.66
2016-12-20T04:42:11.615Z,962.65
2016-12-20T04:43:11.596Z,962.67
2016-12-20T04:44:11.576Z,962.67
2016-12-20T04:45:11.556Z,962.63
2016-12-20T04:46:11.537Z,962.64
2016-12-20T04:47:11.515Z,962.65
2016-12-20T04:48:11.495Z,962.62
2016-12-20T04:49:11.475Z,962.64
2016-12-20T04:50:11.457Z,962.63
2016-12-20T04:51:11.435Z,962.58
2016-12-20T04:52:11.416Z,962.59
2016-12-20T04:53:11.397Z,962.61
2016-12-20T04:54:11.375Z,962.56
2016-12-20T04:55:11.358Z,962.55
2016-12-20T04:56:11.338Z,962.54
2016-12-20T04:57:11.317Z,962.51
2016-12-20T04:58:11.297Z,962.49
2016-12-20T04:59:11.279Z,962.43
2016-12-20T05:00:11.258Z,962.46
2016-12-20T05:01:11.239Z,962.42
2016-12-20T05:02:11.218Z,962.47
2016-12-20T05:03:11.198Z,962.48
2016-12-20T05:04:11.178Z,962.48
2016-12-20T05:05:11.157Z,962.47
2016-12-20T05:06:11.138Z,962.4
2016-12-20T05:07:11.118Z,962.36
2016-12-20T05:08:11.102Z,962.35
2016-12-20T05:09:11.079Z,962.33
2016-12-20T05:10:11.059Z,962.36
2016-12-20T05:11:11.039Z,962.31
2016-12-20T05:12:11.022Z,962.3
2016-12-20T05:13:11.000Z,962.27
2016-12-20T05:14:10.980Z,962.25
2016-12-20T05:15:10.963Z,962.26
2016-12-20T05:16:10.939Z,962.29
2016-12-20T05:17:10.921Z,962.28
2016-12-20T05:18:10.900Z,962.27
2016-12-20T05:19:10.880Z,962.28
2016-12-20T05:20:10.860Z,962.22
2016-12-20T05:21:10.841Z,962.22
2016-12-20T05:22:10.822Z,962.21
2016-12-20T05:23:10.801Z,962.21
2016-12-20T05:24:10.780Z,962.19
2016-12-20T05:25:10.760Z,962.24
2016-12-20T05:26:10.742Z,962.21
2016-12-20T05:27:10.722Z,962.25
2016-12-20T05:28:10.702Z,962.26
2016-12-20T05:29:10.681Z,962.27
2016-12-20T05:30:10.661Z,962.28
2016-12-20T05:31:10.641Z,962.31
2016-12-20T05:32:10.621Z,962.31
2016-12-20T05:33:10.601Z,962.32
2016-12-20T05:34:10.581Z,962.31
2016-12-20T05:35:10.561Z,962.29
2016-12-20T05:36:10.543Z,962.35
2016-12-20T05:37:10.522Z,962.28
2016-12-20T05:38:10.501Z,962.35
2016-12-20T05:39:10.481Z,962.33
2016-12-20T05:40:10.463Z,962.31
2016-12-20T05:41:10.443Z,962.34
2016-12-20T05:42:10.422Z,962.29
2016-12-20T05:43:10.402Z,962.3
2016-12-20T05:44:10.382Z,962.29
2016-12-20T05:45:10.361Z,962.31
2016-12-20T05:46:10.343Z,962.35
2016-12-20T05:47:10.323Z,962.34
2016-12-20T05:48:10.303Z,962.36
2016-12-20T05:49:10.283Z,962.35
2016-12-20T05:50:10.263Z,962.34
2016-12-20T05:51:10.243Z,962.35
2016-12-20T05:52:10.223Z,962.35
2016-12-20T05:53:10.201Z,962.33
2016-12-20T05:54:10.184Z,962.35
2016-12-20T05:55:10.163Z,962.32
2016-12-20T05:56:10.142Z,962.27
2016-12-20T05:57:10.122Z,962.27
2016-12-20T05:58:10.102Z,962.29
2016-12-20T05:59:10.084Z,962.32
2016-12-20T06:00:10.068Z,962.32
2016-12-20T06:01:10.042Z,962.35
2016-12-20T06:02:10.022Z,962.33
2016-12-20T06:03:10.003Z,962.35
2016-12-20T06:04:09.982Z,962.34
2016-12-20T06:05:09.962Z,962.39
2016-12-20T06:06:09.943Z,962.35
2016-12-20T06:07:09.921Z,962.32
2016-12-20T06:08:09.900Z,962.36
2016-12-20T06:09:09.880Z,962.32
2016-12-20T06:10:09.862Z,962.31
2016-12-20T06:11:09.842Z,962.3
2016-12-20T06:12:09.821Z,962.27
2016-12-20T06:13:09.801Z,962.3
2016-12-20T06:14:09.781Z,962.29
2016-12-20T06:15:09.761Z,962.27
2016-12-20T06:16:09.740Z,962.25
2016-12-20T06:17:09.720Z,962.27
2016-12-20T06:18:09.699Z,962.26
2016-12-20T06:19:09.679Z,962.24
2016-12-20T06:20:09.661Z,962.27
2016-12-20T06:21:09.640Z,962.29
2016-12-20T06:22:09.620Z,962.26
2016-12-20T06:23:09.599Z,962.29
2016-12-20T06:24:09.580Z,962.21
2016-12-20T06:25:09.560Z,962.19
2016-12-20T06:26:09.540Z,962.21
2016-12-20T06:27:09.519Z,962.2
2016-12-20T06:28:09.500Z,962.17
2016-12-20T06:29:09.479Z,962.18
2016-12-20T06:30:09.459Z,962.2
2016-12-20T06:31:09.439Z,962.16
2016-12-20T06:32:09.419Z,962.16
2016-12-20T06:33:09.398Z,962.22
2016-12-20T06:34:09.378Z,962.2
2016-12-20T06:35:09.359Z,962.23
2016-12-20T06:36:09.339Z,962.31
2016-12-20T06:37:09.318Z,962.3
2016-12-20T06:38:09.297Z,962.25
2016-12-20T06:39:09.278Z,962.24
2016-12-20T06:40:09.257Z,962.28
2016-12-20T06:41:09.238Z,962.21
2016-12-20T06:42:09.217Z,962.21
2016-12-20T06:43:09.197Z,962.2
2016-12-20T06:44:09.176Z,962.23
2016-12-20T06:45:09.157Z,962.23
2016-12-20T06:46:09.138Z,962.25
2016-12-20T06:47:09.117Z,962.28
2016-12-20T06:48:09.096Z,962.32
2016-12-20T06:49:09.076Z,962.29
2016-12-20T06:50:09.057Z,962.32
2016-12-20T06:51:09.036Z,962.37
2016-12-20T06:52:09.016Z,962.34
2016-12-20T06:53:08.995Z,962.35
2016-12-20T06:54:08.975Z,962.37
2016-12-20T06:55:08.955Z,962.35
2016-12-20T06:56:08.935Z,962.36
2016-12-20T06:57:08.915Z,962.37
2016-12-20T06:58:08.895Z,962.42
2016-12-20T06:59:08.874Z,962.34
2016-12-20T07:00:08.856Z,962.36
2016-12-20T07:01:08.835Z,962.36
2016-12-20T07:02:08.823Z,962.37
2016-12-20T07:03:08.794Z,962.37
2016-12-20T07:04:08.773Z,962.37
2016-12-20T07:05:08.754Z,962.32
2016-12-20T07:06:08.734Z,962.34
2016-12-20T07:07:08.712Z,962.35
2016-12-20T07:08:08.693Z,962.3
2016-12-20T07:09:08.673Z,962.29
2016-12-20T07:10:08.652Z,962.23
2016-12-20T07:11:08.631Z,962.28
2016-12-20T07:12:08.612Z,962.26
2016-12-20T07:13:08.591Z,962.22
2016-12-20T07:14:08.572Z,962.28
2016-12-20T07:15:08.551Z,962.25
2016-12-20T07:16:08.531Z,962.2
2016-12-20T07:17:08.510Z,962.24
2016-12-20T07:18:08.491Z,962.2
2016-12-20T07:19:08.474Z,962.24
2016-12-20T07:20:08.450Z,962.25
2016-12-20T07:21:08.431Z,962.17
2016-12-20T07:22:08.411Z,962.16
2016-12-20T07:23:08.391Z,962.17
2016-12-20T07:24:08.369Z,962.17
2016-12-20T07:25:08.349Z,962.15
2016-12-20T07:26:08.330Z,962.15
2016-12-20T07:27:08.309Z,962.17
2016-12-20T07:28:08.288Z,962.18
2016-12-20T07:29:08.269Z,962.23
2016-12-20T07:30:08.251Z,962.2
2016-12-20T07:31:08.227Z,962.19
2016-12-20T07:32:08.208Z,962.16
2016-12-20T07:33:08.187Z,962.1
2016-12-20T07:34:08.167Z,962.14
2016-12-20T07:35:08.146Z,962.11
2016-12-20T07:36:08.127Z,962.05
2016-12-20T07:37:08.106Z,962.11
2016-12-20T07:38:08.086Z,962.1
2016-12-20T07:39:08.066Z,962.05
2016-12-20T07:40:08.046Z,962.12
2016-12-20T07:41:08.025Z,962.07
2016-12-20T07:42:08.004Z,962.08
2016-12-20T07:43:07.985Z,962.05
2016-12-20T07:44:07.965Z,962.07
2016-12-20T07:45:07.947Z,962.13
2016-12-20T07:46:07.926Z,962.15
2016-12-20T07:47:07.904Z,962.15
2016-12-20T07:48:07.884Z,962.17
2016-12-20T07:49:07.865Z,962.16
2016-12-20T07:50:07.845Z,962.1
2016-12-20T07:51:07.824Z,962.11
2016-12-20T07:52:07.805Z,962.02
2016-12-20T07:53:07.784Z,962.05
2016-12-20T07:54:07.764Z,962.05
2016-12-20T07:55:07.744Z,962.04
2016-12-20T07:56:07.724Z,962.08
2016-12-20T07:57:07.703Z,962.1
2016-12-20T07:58:07.684Z,962.14
2016-12-20T07:59:07.665Z,962.14
2016-12-20T08:00:07.645Z,962.15
2016-12-20T08:01:07.627Z,962.13
2016-12-20T08:02:07.604Z,962.16
2016-12-20T08:03:07.584Z,962.12
2016-12-20T08:04:07.563Z,962.14
2016-12-20T08:05:07.545Z,962.14
2016-12-20T08:06:07.526Z,962.06
2016-12-20T08:07:07.504Z,962.06
2016-12-20T08:08:07.484Z,962.09
2016-12-20T08:09:07.465Z,962.01
2016-12-20T08:10:07.444Z,962.02
2016-12-20T08:11:07.424Z,961.97
2016-12-20T08:12:07.403Z,961.96
2016-12-20T08:13:07.385Z,961.93
2016-12-20T08:14:07.365Z,961.92
2016-12-20T08:15:07.344Z,961.9
2016-12-20T08:16:07.324Z,961.92
2016-12-20T08:17:07.304Z,961.91
2016-12-20T08:18:07.285Z,961.97
2016-12-20T08:19:07.265Z,961.92
2016-12-20T08:20:07.245Z,961.95
2016-12-20T08:21:07.226Z,961.98
2016-12-20T08:22:07.206Z,961.97
2016-12-20T08:23:07.185Z,961.95
2016-12-20T08:24:07.166Z,962.01
2016-12-20T08:25:07.146Z,961.97
2016-12-20T08:26:07.126Z,961.98
2016-12-20T08:27:07.107Z,962
2016-12-20T08:28:07.088Z,961.97
2016-12-20T08:29:07.070Z,962.01
2016-12-20T08:30:07.048Z,962.02
2016-12-20T08:31:07.027Z,962
2016-12-20T08:32:07.008Z,962
2016-12-20T08:33:06.990Z,962.04
2016-12-20T08:34:06.969Z,962.03
2016-12-20T08:35:06.950Z,962.04
2016-12-20T08:36:06.930Z,962.04
2016-12-20T08:37:06.910Z,962.06
2016-12-20T08:38:06.891Z,962.06
2016-12-20T08:39:06.871Z,962.08
2016-12-20T08:40:06.852Z,962.07
2016-12-20T08:41:06.832Z,962.03
2016-12-20T08:42:06.813Z,962.07
2016-12-20T08:43:06.793Z,962.06
2016-12-20T08:44:06.773Z,962.07
2016-12-20T08:45:06.753Z,962.08
2016-12-20T08:46:06.735Z,962.06
2016-12-20T08:47:06.715Z,962.06
2016-12-20T08:48:06.695Z,962.06
2016-12-20T08:49:06.675Z,962.05
2016-12-20T08:50:06.656Z,962.05
2016-12-20T08:51:06.638Z,962.11
2016-12-20T08:52:06.615Z,962.02
2016-12-20T08:53:06.598Z,962.01
2016-12-20T08:54:06.579Z,962.01
2016-12-20T08:55:06.560Z,962.03
2016-12-20T08:56:06.540Z,961.97
2016-12-20T08:57:06.520Z,961.95
2016-12-20T08:58:06.501Z,962.01
2016-12-20T08:59:06.481Z,961.98
2016-12-20T09:00:06.462Z,962
2016-12-20T09:01:06.443Z,962
2016-12-20T09:02:06.425Z,962.05
2016-12-20T09:03:06.405Z,962.03
2016-12-20T09:04:06.394Z,962.08
2016-12-20T09:05:06.366Z,962.09
2016-12-20T09:06:06.346Z,962.15
2016-12-20T09:07:06.328Z,962.12
2016-12-20T09:08:06.308Z,962.14
2016-12-20T09:09:06.289Z,962.1
2016-12-20T09:10:06.269Z,962.21
2016-12-20T09:11:06.251Z,962.16
2016-12-20T09:12:06.231Z,962.15
2016-12-20T09:13:06.212Z,962.16
2016-12-20T09:14:06.191Z,962.08
2016-12-20T09:15:06.174Z,962.15
2016-12-20T09:16:06.154Z,962.13
2016-12-20T09:17:06.134Z,962.14
2016-12-20T09:18:06.115Z,962.1
2016-12-20T09:19:06.097Z,962.12
2016-12-20T09:20:06.077Z,962.13
2016-12-20T09:21:06.063Z,962.09
2016-12-20T09:22:06.039Z,962.04
2016-12-20T09:23:06.021Z,962.02
2016-12-20T09:24:06.002Z,961.96
2016-12-20T09:25:05.981Z,961.95
2016-12-20T09:26:05.964Z,961.94
2016-12-20T09:27:05.943Z,961.97
2016-12-20T09:28:05.937Z,962.01
2016-12-20T09:29:05.906Z,962.03
2016-12-20T09:30:05.887Z,962.01
2016-12-20T09:31:05.869Z,961.98
2016-12-20T09:32:05.848Z,961.95
2016-12-20T09:33:05.829Z,961.95
2016-12-20T09:34:05.813Z,961.9
2016-12-20T09:35:05.792Z,961.84
2016-12-20T09:36:05.772Z,961.85
2016-12-20T09:37:05.754Z,961.8
2016-12-20T09:38:05.736Z,961.79
2016-12-20T09:39:05.716Z,961.77
2016-12-20T09:40:05.696Z,961.77
2016-12-20T09:41:05.679Z,961.74
2016-12-20T09:42:05.660Z,961.71
2016-12-20T09:43:05.640Z,961.65
2016-12-20T09:44:05.623Z,961.64
2016-12-20T09:45:05.603Z,961.63
2016-12-20T09:46:05.585Z,961.6
2016-12-20T09:47:05.565Z,961.61
2016-12-20T09:48:05.547Z,961.57
2016-12-20T09:49:05.528Z,961.51
2016-12-20T09:50:05.509Z,961.51
2016-12-20T09:51:05.491Z,961.51
2016-12-20T09:52:05.471Z,961.48
2016-12-20T09:53:05.454Z,961.45
2016-12-20T09:54:05.433Z,961.43
2016-12-20T09:55:05.415Z,961.44
2016-12-20T09:56:05.398Z,961.39
2016-12-20T09:57:05.379Z,961.47
2016-12-20T09:58:05.359Z,961.44
2016-12-20T09:59:05.341Z,961.39
2016-12-20T10:00:05.322Z,961.38
2016-12-20T10:01:05.304Z,961.43
2016-12-20T10:02:05.285Z,961.36
2016-12-20T10:03:05.267Z,961.37
2016-12-20T10:04:05.248Z,961.34
2016-12-20T10:05:05.228Z,961.36
2016-12-20T10:06:05.210Z,961.36
2016-12-20T10:07:05.192Z,961.34
2016-12-20T10:08:05.174Z,961.3
2016-12-20T10:09:05.154Z,961.24
2016-12-20T10:10:05.136Z,961.27
2016-12-20T10:11:05.121Z,961.18
2016-12-20T10:12:05.099Z,961.2
2016-12-20T10:13:05.081Z,961.23
2016-12-20T10:14:05.063Z,961.21
2016-12-20T10:15:05.044Z,961.21
2016-12-20T10:16:05.025Z,961.21
2016-12-20T10:17:05.008Z,961.21
2016-12-20T10:18:04.989Z,961.16
2016-12-20T10:19:04.972Z,961.2
2016-12-20T10:20:04.953Z,961.18
2016-12-20T10:21:04.934Z,961.15
2016-12-20T10:22:04.916Z,961.2
2016-12-20T10:23:04.897Z,961.21
2016-12-20T10:24:04.881Z,961.14
2016-12-20T10:25:04.861Z,961.19
2016-12-20T10:26:04.843Z,961.18
2016-12-20T10:27:04.824Z,961.11
2016-12-20T10:28:04.806Z,961.14
2016-12-20T10:29:04.789Z,961.11
2016-12-20T10:30:04.770Z,961.12
2016-12-20T10:31:04.753Z,961.08
2016-12-20T10:32:04.734Z,961.13
2016-12-20T10:33:04.717Z,961.07
2016-12-20T10:34:04.698Z,961.13
2016-12-20T10:35:04.680Z,961.14
2016-12-20T10:36:04.663Z,961.14
2016-12-20T10:37:04.645Z,961.14
2016-12-20T10:38:04.626Z,961.21
2016-12-20T10:39:04.609Z,961.19
2016-12-20T10:40:04.590Z,961.22
2016-12-20T10:41:04.571Z,961.21
2016-12-20T10:42:04.553Z,961.23
2016-12-20T10:43:04.536Z,961.23
2016-12-20T10:44:04.520Z,961.25
2016-12-20T10:45:04.505Z,961.25
2016-12-20T10:46:04.482Z,961.23
2016-12-20T10:47:04.464Z,961.18
2016-12-20T10:48:04.448Z,961.18
2016-12-20T10:49:04.429Z,961.18
2016-12-20T10:50:04.411Z,961.13
2016-12-20T10:51:04.395Z,961.14
2016-12-20T10:52:04.375Z,961.14
2016-12-20T10:53:04.359Z,961.11
2016-12-20T10:54:04.340Z,961.13
2016-12-20T10:55:04.323Z,961.08
2016-12-20T10:56:04.304Z,961.07
2016-12-20T10:57:04.286Z,961.07
2016-12-20T10:58:04.271Z,961.06
2016-12-20T10:59:04.253Z,961.02
2016-12-20T11:00:04.234Z,960.98
2016-12-20T11:01:04.216Z,960.97
2016-12-20T11:02:04.200Z,961
2016-12-20T11:03:04.180Z,960.98
2016-12-20T11:04:04.163Z,960.94
2016-12-20T11:05:04.147Z,960.99
2016-12-20T11:06:04.130Z,961.03
2016-12-20T11:07:04.110Z,961.01
2016-12-20T11:08:04.093Z,961.03
2016-12-20T11:09:04.076Z,961.02
2016-12-20T11:10:04.059Z,961.07
2016-12-20T11:11:04.041Z,961.03
2016-12-20T11:12:04.023Z,961.01
2016-12-20T11:13:04.006Z,961.01
2016-12-20T11:14:03.988Z,960.97
2016-12-20T11:15:03.972Z,960.98
2016-12-20T11:16:03.953Z,960.92
2016-12-20T11:17:03.937Z,960.91
2016-12-20T11:18:03.919Z,960.91
2016-12-20T11:19:03.902Z,960.89
2016-12-20T11:20:03.884Z,960.84
2016-12-20T11:21:03.867Z,960.89
2016-12-20T11:22:03.851Z,960.83
2016-12-20T11:23:03.832Z,960.86
2016-12-20T11:24:03.815Z,960.84
2016-12-20T11:25:03.798Z,960.85
2016-12-20T11:26:03.780Z,960.82
2016-12-20T11:27:03.763Z,960.82
2016-12-20T11:28:03.746Z,960.8
2016-12-20T11:29:03.728Z,960.79
2016-12-20T11:30:03.711Z,960.79
2016-12-20T11:31:03.694Z,960.71
2016-12-20T11:32:03.677Z,960.69
2016-12-20T11:33:03.660Z,960.7
2016-12-20T11:34:03.642Z,960.68
2016-12-20T11:35:03.625Z,960.65
2016-12-20T11:36:03.607Z,960.65
2016-12-20T11:37:03.590Z,960.64
2016-12-20T11:38:03.573Z,960.64
2016-12-20T11:39:03.557Z,960.64
2016-12-20T11:40:03.538Z,960.62
2016-12-20T11:41:03.522Z,960.61
2016-12-20T11:42:03.505Z,960.59
2016-12-20T11:43:03.488Z,960.55
2016-12-20T11:44:03.470Z,960.53
2016-12-20T11:45:03.453Z,960.57
2016-12-20T11:46:03.437Z,960.51
2016-12-20T11:47:03.418Z,960.52
2016-12-20T11:48:03.400Z,960.53
2016-12-20T11:49:03.384Z,960.45
2016-12-20T11:50:03.367Z,960.42
2016-12-20T11:51:03.348Z,960.37
2016-12-20T11:52:03.332Z,960.33
2016-12-20T11:53:03.315Z,960.3
2016-12-20T11:54:03.297Z,960.26
2016-12-20T11:55:03.282Z,960.22
2016-12-20T11:56:03.262Z,960.24
2016-12-20T11:57:03.246Z,960.2
2016-12-20T11:58:03.228Z,960.21
2016-12-20T11:59:03.211Z,960.21
2016-12-20T12:00:03.194Z,960.18
2016-12-20T12:01:03.180Z,960.2
2016-12-20T12:02:03.161Z,960.18
2016-12-20T12:03:03.143Z,960.15
2016-12-20T12:04:03.126Z,960.12
2016-12-20T12:05:03.109Z,960.17
2016-12-20T12:06:03.092Z,960.19
2016-12-20T12:07:03.075Z,960.16
2016-12-20T12:08:03.058Z,960.14
2016-12-20T12:09:03.040Z,960.21
2016-12-20T12:10:03.025Z,960.13
2016-12-20T12:11:03.007Z,960.1
2016-12-20T12:12:02.990Z,960.17
2016-12-20T12:13:02.973Z,960.14
2016-12-20T12:14:02.955Z,960.13
2016-12-20T12:15:02.940Z,960.11
2016-12-20T12:16:02.921Z,960.14
2016-12-20T12:17:02.905Z,960.15
2016-12-20T12:18:02.887Z,960.07
2016-12-20T12:19:02.871Z,960.1
2016-12-20T12:20:02.854Z,960.1
2016-12-20T12:21:02.836Z,960.1
2016-12-20T12:22:02.821Z,960.06
2016-12-20T12:23:02.803Z,960.07
2016-12-20T12:24:02.786Z,960.05
2016-12-20T12:25:02.769Z,960.05
2016-12-20T12:26:02.753Z,960.04
2016-12-20T12:27:02.735Z,960
2016-12-20T12:28:02.719Z,960.07
2016-12-20T12:29:02.702Z,959.97
2016-12-20T12:30:02.686Z,960.01
2016-12-20T12:31:02.669Z,959.95